Map

Track Data

SID SEASON NUMBER BASIN SUBBASIN NAME ISO_TIME NATURE LAT LON WMO_WIND WMO_PRES WMO_AGENCY TRACK_TYPE DIST2LAND LANDFALL IFLAG USA_AGENCY USA_ATCF_ID USA_LAT USA_LON USA_RECORD USA_STATUS USA_WIND USA_PRES USA_SSHS USA_R34_NE USA_R34_SE USA_R34_SW USA_R34_NW USA_R50_NE USA_R50_SE USA_R50_SW USA_R50_NW USA_R64_NE USA_R64_SE USA_R64_SW USA_R64_NW USA_POCI USA_ROCI USA_RMW USA_EYE TOKYO_LAT TOKYO_LON TOKYO_GRADE TOKYO_WIND TOKYO_PRES TOKYO_R50_DIR TOKYO_R50_LONG TOKYO_R50_SHORT TOKYO_R30_DIR TOKYO_R30_LONG TOKYO_R30_SHORT TOKYO_LAND CMA_LAT CMA_LON CMA_CAT CMA_WIND CMA_PRES HKO_LAT HKO_LON HKO_CAT HKO_WIND HKO_PRES NEWDELHI_LAT NEWDELHI_LON NEWDELHI_GRADE NEWDELHI_WIND NEWDELHI_PRES NEWDELHI_CI NEWDELHI_DP NEWDELHI_POCI REUNION_LAT REUNION_LON REUNION_TYPE REUNION_WIND REUNION_PRES REUNION_TNUM REUNION_CI REUNION_RMW REUNION_R34_NE REUNION_R34_SE REUNION_R34_SW REUNION_R34_NW REUNION_R50_NE REUNION_R50_SE REUNION_R50_SW REUNION_R50_NW REUNION_R64_NE REUNION_R64_SE REUNION_R64_SW REUNION_R64_NW BOM_LAT BOM_LON BOM_TYPE BOM_WIND BOM_PRES BOM_TNUM BOM_CI BOM_RMW BOM_R34_NE BOM_R34_SE BOM_R34_SW BOM_R34_NW BOM_R50_NE BOM_R50_SE BOM_R50_SW BOM_R50_NW BOM_R64_NE BOM_R64_SE BOM_R64_SW BOM_R64_NW BOM_ROCI BOM_POCI BOM_EYE BOM_POS_METHOD BOM_PRES_METHOD NADI_LAT NADI_LON NADI_CAT NADI_WIND NADI_PRES WELLINGTON_LAT WELLINGTON_LON WELLINGTON_WIND WELLINGTON_PRES DS824_LAT DS824_LON DS824_STAGE DS824_WIND DS824_PRES TD9636_LAT TD9636_LON TD9636_STAGE TD9636_WIND TD9636_PRES TD9635_LAT TD9635_LON TD9635_WIND TD9635_PRES TD9635_ROCI NEUMANN_LAT NEUMANN_LON NEUMANN_CLASS NEUMANN_WIND NEUMANN_PRES MLC_LAT MLC_LON MLC_CLASS MLC_WIND MLC_PRES USA_GUST BOM_GUST BOM_GUST_PER REUNION_GUST REUNION_GUST_PER USA_SEAHGT USA_SEARAD_NE USA_SEARAD_SE USA_SEARAD_SW USA_SEARAD_NW STORM_SPEED STORM_DIR
1919289N13152 1919 45 WP MM NOT_NAMED 1919-10-16 09:00:00 NR 13.2000 152.200 main 1787 1786 __________O___ -1 13.2000 152.200 7 5 293
1919289N13152 1919 45 WP MM NOT_NAMED 1919-10-16 12:00:00 NR 13.3028 151.957 main 1796 1795 __________P___ -1 13.3028 151.957 7 6 295
1919289N13152 1919 45 WP MM NOT_NAMED 1919-10-16 15:00:00 NR 13.4344 151.682 main 1800 1800 __________P___ -1 13.4344 151.682 7 7 298
1919289N13152 1919 45 WP MM NOT_NAMED 1919-10-16 18:00:00 NR 13.6239 151.340 main 1810 1810 __________P___ -1 13.6239 151.340 7 9 302
1919289N13152 1919 45 WP MM NOT_NAMED 1919-10-16 21:00:00 NR 13.9000 150.900 main 1833 1831 __________O___ -1 13.9000 150.900 7 12 304
1919289N13152 1919 45 WP MM NOT_NAMED 1919-10-17 00:00:00 NR 14.2812 150.340 main 1864 1864 __________P___ -1 14.2812 150.340 7 15 306
1919289N13152 1919 45 WP MM NOT_NAMED 1919-10-17 03:00:00 NR 14.7459 149.691 main 1899 1899 __________P___ -1 14.7459 149.691 7 16 307
1919289N13152 1919 45 WP MM NOT_NAMED 1919-10-17 06:00:00 NR 15.2624 148.996 main 1957 1956 __________P___ -1 15.2624 148.996 7 17 308
1919289N13152 1919 45 WP MM NOT_NAMED 1919-10-17 09:00:00 NR 15.8000 148.300 main 2007 2007 __________O___ -1 15.8000 148.300 7 17 310
1919289N13152 1919 45 WP MM NOT_NAMED 1919-10-17 12:00:00 NR 16.3470 147.640 main 2061 2061 __________P___ -1 16.3470 147.640 7 17 311
1919289N13152 1919 45 WP MM NOT_NAMED 1919-10-17 15:00:00 NR 16.9024 146.991 main 2128 2057 __________P___ -1 16.9024 146.991 7 16 312
1919289N13152 1919 45 WP MM NOT_NAMED 1919-10-17 18:00:00 NR 17.4316 146.371 main 2057 1986 __________P___ -1 17.4316 146.371 7 15 311
1919289N13152 1919 45 WP MM NOT_NAMED 1919-10-17 21:00:00 NR 17.9000 145.800 main 1986 1939 __________O___ -1 17.9000 145.800 7 13 309
1919289N13152 1919 45 WP MM NOT_NAMED 1919-10-18 00:00:00 NR 18.2555 145.298 main 1928 1894 __________P___ -1 18.2555 145.298 7 11 306
1919289N13152 1919 45 WP MM NOT_NAMED 1919-10-18 03:00:00 NR 18.5511 144.845 main 1879 1840 __________P___ -1 18.5511 144.845 7 10 304
1919289N13152 1919 45 WP MM NOT_NAMED 1919-10-18 06:00:00 NR 18.8213 144.420 main 1840 1792 __________P___ -1 18.8213 144.420 7 10 304
1919289N13152 1919 45 WP MM NOT_NAMED 1919-10-18 09:00:00 NR 19.1000 144.000 main 1792 1729 __________O___ -1 19.1000 144.000 4 11 307
1919289N13152 1919 45 WP MM NOT_NAMED 1919-10-18 12:00:00 NR 19.4726 143.490 main 1729 1677 __________P___ -1 19.4726 143.490 4 12 308
1919289N13152 1919 45 WP MM NOT_NAMED 1919-10-18 15:00:00 NR 19.8532 142.989 main 1667 1619 __________P___ -1 19.8532 142.989 4 12 309
1919289N13152 1919 45 WP MM NOT_NAMED 1919-10-18 18:00:00 NR 20.2071 142.543 main 1615 1572 __________P___ -1 20.2071 142.543 4 10 311
1919289N13152 1919 45 WP MM NOT_NAMED 1919-10-18 21:00:00 NR 20.5000 142.200 main 1572 1544 __________O___ -1 20.5000 142.200 4 7 315
1919289N13152 1919 45 WP MM NOT_NAMED 1919-10-19 00:00:00 NR 20.6807 142.032 main 1544 1533 __________P___ -1 20.6807 142.032 4 4 324
1919289N13152 1919 45 WP MM NOT_NAMED 1919-10-19 03:00:00 NR 20.8015 141.966 main 1533 1519 __________P___ -1 20.8015 141.966 4 2 337
1919289N13152 1919 45 WP MM NOT_NAMED 1919-10-19 06:00:00 NR 20.8966 141.942 main 1519 1509 __________P___ -1 20.8966 141.942 4 2 345
1919289N13152 1919 45 WP MM NOT_NAMED 1919-10-19 09:00:00 NR 21.0000 141.900 main 1509 1505 __________O___ -1 21.0000 141.900 4 2 313
1919289N13152 1919 45 WP MM NOT_NAMED 1919-10-19 12:00:00 NR 21.0182 141.799 main 1505 1491 __________P___ -1 21.0182 141.799 4 2 288
1919289N13152 1919 45 WP MM NOT_NAMED 1919-10-19 15:00:00 NR 21.0721 141.665 main 1491 1473 __________P___ -1 21.0721 141.665 4 4 309
1919289N13152 1919 45 WP MM NOT_NAMED 1919-10-19 18:00:00 NR 21.2649 141.473 main 1462 1409 __________P___ -1 21.2649 141.473 4 8 325
1919289N13152 1919 45 WP MM NOT_NAMED 1919-10-19 21:00:00 NR 21.7000 141.200 main 1409 1308 __________O___ -1 21.7000 141.200 4 15 331
1919289N13152 1919 45 WP MM NOT_NAMED 1919-10-20 00:00:00 NR 22.5532 140.688 main 1297 1171 __________P___ -1 22.5532 140.688 4 22 333
1919289N13152 1919 45 WP MM NOT_NAMED 1919-10-20 03:00:00 NR 23.6380 140.109 main 1171 1038 __________P___ -1 23.6380 140.109 4 25 336
1919289N13152 1919 45 WP MM NOT_NAMED 1919-10-20 06:00:00 NR 24.8033 139.599 main 1028 912 __________P___ -1 24.8033 139.599 4 24 342
1919289N13152 1919 45 WP MM NOT_NAMED 1919-10-20 09:00:00 NR 25.9000 139.300 main 902 819 __________O___ -1 25.9000 139.300 4 20 353
1919289N13152 1919 45 WP MM NOT_NAMED 1919-10-20 12:00:00 NR 26.7850 139.337 main 809 751 __________P___ -1 26.7850 139.337 4 17 10
1919289N13152 1919 45 WP MM NOT_NAMED 1919-10-20 15:00:00 NR 27.5716 139.617 main 742 704 __________P___ -1 27.5716 139.617 4 16 25
1919289N13152 1919 45 WP MM NOT_NAMED 1919-10-20 18:00:00 NR 28.2476 140.089 main 710 671 __________P___ -1 28.2476 140.089 4 16 38
1919289N13152 1919 45 WP MM NOT_NAMED 1919-10-20 21:00:00 NR 28.8000 140.700 main 671 643 __________O___ -1 28.8000 140.700 4 15 48
1919289N13152 1919 45 WP MM NOT_NAMED 1919-10-21 00:00:00 NR 29.2469 141.333 main 646 623 __________P___ -1 29.2469 141.333 4 14 57
1919289N13152 1919 45 WP MM NOT_NAMED 1919-10-21 03:00:00 NR 29.5727 142.086 main 626 625 __________P___ -1 29.5727 142.086 4 15 68
1919289N13152 1919 45 WP MM NOT_NAMED 1919-10-21 06:00:00 NR 29.8119 142.921 main 634 633 __________P___ -1 29.8119 142.921 4 15 74
1919289N13152 1919 45 WP MM NOT_NAMED 1919-10-21 09:00:00 NR 30.0000 143.800 main 657 657 __________O___ -1 30.0000 143.800 4 16 77
1919289N13152 1919 45 WP MM NOT_NAMED 1919-10-21 12:00:00 NR 30.1672 144.692 main 686 686 __________P___ -1 30.1672 144.692 4 16 78
1919289N13152 1919 45 WP MM NOT_NAMED 1919-10-21 15:00:00 NR 30.3215 145.590 main 730 730 __________P___ -1 30.3215 145.590 4 16 79
1919289N13152 1919 45 WP MM NOT_NAMED 1919-10-21 18:00:00 NR 30.4650 146.493 main 773 773 __________P___ -1 30.4650 146.493 4 16 80
1919289N13152 1919 45 WP MM NOT_NAMED 1919-10-21 21:00:00 NR 30.6000 147.400 main 829 __________O___ -1 30.6000 147.400 4 16 80

Digital Typhoon Data and Search

About IBTrACS Database

This database is a web-friendly format of International Best Track Archive for Climate Stewardship (IBTrACS), a global best track data archive curated by NOAA dating back to 1842.

Updated: 2021-10-27